Time;durP1;ratioP1;P1;durP2;ratioP2;P2;SDS_P1;SDS_P2;PMS_P1;PMS_P2;Temp;Humidity;BMP_temperature;BMP_pressure;BME280_temperature;BME280_humidity;BME280_pressure;Samples;Min_cycle;Max_cycle;Signal;HPM_P1;HPM_P2
2022/04/26 03:37:57;;;;;;;50.65;25.55;;;;;;;;;;6254779;28;20107;-61
2022/04/26 03:40:58;;;;;;;55.28;26.80;;;;;;;;;;6265750;28;20053;-61
2022/04/26 03:43:59;;;;;;;61.92;30.00;;;;;;;;;;6266694;28;20587;-60
2022/04/26 03:47:00;;;;;;;46.60;22.63;;;;;;;;;;6263720;28;20053;-61
2022/04/26 03:50:01;;;;;;;53.53;23.77;;;;;;;;;;6265122;28;20536;-60
2022/04/26 03:53:01;;;;;;;50.22;24.30;;;;;;;;;;6264171;28;20045;-61
2022/04/26 03:56:02;;;;;;;55.67;25.33;;;;;;;;;;6264585;28;20584;-61
2022/04/26 03:59:03;;;;;;;50.75;24.00;;;;;;;;;;6265565;28;20045;-61
2022/04/26 04:02:04;;;;;;;51.25;24.45;;;;;;;;;;6265293;28;20087;-60
2022/04/26 04:05:05;;;;;;;60.60;29.08;;;;;;;;;;6260542;28;20076;-61
2022/04/26 04:08:05;;;;;;;50.17;24.48;;;;;;;;;;6260931;28;20443;-60
2022/04/26 04:11:06;;;;;;;53.10;25.27;;;;;;;;;;6263949;28;20083;-60
2022/04/26 04:14:06;;;;;;;50.72;23.77;;;;;;;;;;6262096;28;20072;-61
2022/04/26 04:17:07;;;;;;;54.08;24.52;;;;;;;;;;6261982;28;20122;-60
2022/04/26 04:20:08;;;;;;;55.72;27.90;;;;;;;;;;6264760;28;20552;-61
2022/04/26 04:23:09;;;;;;;58.95;27.75;;;;;;;;;;6262232;28;20083;-61
2022/04/26 04:26:10;;;;;;;50.65;25.38;;;;;;;;;;6259295;28;20037;-60
2022/04/26 04:29:11;;;;;;;53.85;26.05;;;;;;;;;;6259993;28;20099;-60
2022/04/26 04:32:12;;;;;;;51.72;23.70;;;;;;;;;;6260082;28;20037;-61
2022/04/26 04:35:12;;;;;;;48.03;23.92;;;;;;;;;;6260550;28;20049;-61
2022/04/26 04:38:13;;;;;;;46.67;23.08;;;;;;;;;;6262372;28;20047;-59
2022/04/26 04:41:14;;;;;;;54.85;26.10;;;;;;;;;;6263796;28;20110;-59
2022/04/26 04:44:15;;;;;;;61.57;28.37;;;;;;;;;;6264713;28;20072;-59
2022/04/26 04:47:16;;;;;;;57.60;28.08;;;;;;;;;;6260783;28;20540;-60
2022/04/26 04:50:17;;;;;;;55.80;27.10;;;;;;;;;;6261992;28;20503;-55
2022/04/26 04:53:19;;;;;;;56.55;27.30;;;;;;;;;;6262128;28;20052;-56
2022/04/26 04:56:19;;;;;;;56.10;26.67;;;;;;;;;;6258579;28;20060;-58
2022/04/26 04:59:20;;;;;;;53.80;23.45;;;;;;;;;;6261022;28;20608;-61
2022/04/26 05:02:21;;;;;;;57.05;25.52;;;;;;;;;;6262171;28;20041;-60
2022/04/26 05:05:22;;;;;;;48.83;23.42;;;;;;;;;;6257076;28;20063;-60
2022/04/26 05:08:24;;;;;;;46.00;21.98;;;;;;;;;;6261736;28;20126;-59
2022/04/26 05:11:25;;;;;;;57.08;26.52;;;;;;;;;;6262287;28;20049;-60
2022/04/26 05:14:25;;;;;;;50.83;23.58;;;;;;;;;;6263732;28;20135;-60
2022/04/26 05:17:27;;;;;;;52.53;23.13;;;;;;;;;;6260392;28;20056;-60
2022/04/26 05:20:27;;;;;;;56.13;23.50;;;;;;;;;;6260010;28;20551;-60
2022/04/26 05:26:47;;;;;;;50.47;22.50;;;;;;;;;;6261533;28;20053;-59
2022/04/26 05:29:48;;;;;;;49.20;23.95;;;;;;;;;;6261055;28;20051;-60
2022/04/26 05:32:48;;;;;;;53.25;24.58;;;;;;;;;;6259420;28;20057;-60
2022/04/26 05:35:49;;;;;;;52.63;23.77;;;;;;;;;;6261668;28;20182;-61
2022/04/26 05:38:50;;;;;;;50.70;23.63;;;;;;;;;;6264699;28;20136;-60
2022/04/26 05:41:50;;;;;;;53.17;23.52;;;;;;;;;;6265761;28;20041;-60
2022/04/26 05:44:51;;;;;;;56.08;24.33;;;;;;;;;;6261461;28;20408;-61
2022/04/26 05:47:51;;;;;;;53.03;23.90;;;;;;;;;;6259577;28;20481;-60
2022/04/26 05:50:52;;;;;;;49.97;23.30;;;;;;;;;;6264163;28;20041;-59
2022/04/26 05:53:53;;;;;;;51.03;22.98;;;;;;;;;;6267914;28;20045;-60
2022/04/26 05:56:53;;;;;;;48.05;22.50;;;;;;;;;;6260286;28;20567;-60
2022/04/26 05:59:54;;;;;;;51.60;25.48;;;;;;;;;;6267458;28;20045;-60
2022/04/26 06:02:55;;;;;;;51.90;24.20;;;;;;;;;;6265124;28;20045;-60
2022/04/26 06:05:57;;;;;;;49.08;23.02;;;;;;;;;;6264262;28;20045;-59
2022/04/26 06:08:57;;;;;;;48.85;21.25;;;;;;;;;;6265745;28;20431;-59
2022/04/26 06:11:58;;;;;;;50.38;22.33;;;;;;;;;;6266629;28;20037;-61
2022/04/26 06:14:59;;;;;;;47.60;21.27;;;;;;;;;;6266009;28;20467;-60
2022/04/26 06:18:00;;;;;;;49.53;21.50;;;;;;;;;;6266599;28;20103;-60
2022/04/26 06:21:01;;;;;;;43.55;21.02;;;;;;;;;;6266572;28;20556;-60
2022/04/26 06:24:02;;;;;;;45.70;21.90;;;;;;;;;;6262322;28;20075;-59
2022/04/26 06:27:03;;;;;;;49.80;20.38;;;;;;;;;;6265522;28;20052;-59
2022/04/26 06:30:04;;;;;;;42.83;20.30;;;;;;;;;;6265327;28;20486;-59
2022/04/26 06:33:06;;;;;;;43.00;19.27;;;;;;;;;;6265242;28;20166;-59
2022/04/26 06:36:07;;;;;;;47.45;21.67;;;;;;;;;;6263579;28;20079;-60
2022/04/26 06:39:07;;;;;;;43.85;20.33;;;;;;;;;;6267930;28;20131;-60
2022/04/26 06:42:09;;;;;;;53.40;24.08;;;;;;;;;;6266417;28;20055;-60
2022/04/26 06:45:09;;;;;;;54.43;22.83;;;;;;;;;;6267044;28;20049;-60
2022/04/26 06:48:10;;;;;;;51.70;24.10;;;;;;;;;;6266195;28;20323;-60
2022/04/26 06:51:11;;;;;;;49.13;23.30;;;;;;;;;;6265806;28;20053;-59
2022/04/26 06:54:12;;;;;;;49.47;23.73;;;;;;;;;;6267489;28;20131;-60
2022/04/26 06:57:13;;;;;;;48.55;23.38;;;;;;;;;;6266075;28;20131;-60
2022/04/26 07:00:14;;;;;;;47.38;22.50;;;;;;;;;;6268635;28;20051;-60
2022/04/26 07:03:15;;;;;;;49.10;22.25;;;;;;;;;;6263862;28;20072;-59
2022/04/26 07:06:15;;;;;;;48.35;21.40;;;;;;;;;;6258162;28;20103;-59
2022/04/26 07:09:16;;;;;;;51.35;23.00;;;;;;;;;;6263916;28;20377;-59
2022/04/26 07:12:17;;;;;;;48.00;21.10;;;;;;;;;;6267507;28;20140;-60
2022/04/26 07:15:17;;;;;;;52.80;23.25;;;;;;;;;;6263785;28;20049;-59
2022/04/26 07:18:18;;;;;;;48.45;22.70;;;;;;;;;;6264007;28;20311;-60
2022/04/26 07:21:18;;;;;;;49.75;21.80;;;;;;;;;;6262232;28;20584;-59
2022/04/26 07:24:19;;;;;;;45.67;20.75;;;;;;;;;;6262471;28;20052;-60
2022/04/26 07:27:20;;;;;;;52.95;22.38;;;;;;;;;;6259926;28;20135;-59
2022/04/26 07:30:21;;;;;;;48.75;21.75;;;;;;;;;;6262833;28;20480;-59
2022/04/26 07:36:40;;;;;;;42.28;19.73;;;;;;;;;;6265852;28;20075;-60
2022/04/26 07:39:42;;;;;;;42.92;20.65;;;;;;;;;;6266569;28;20136;-60
2022/04/26 07:42:43;;;;;;;42.95;20.60;;;;;;;;;;6265846;28;20049;-60
2022/04/26 07:45:45;;;;;;;42.55;20.85;;;;;;;;;;6265203;28;20103;-60
2022/04/26 07:48:45;;;;;;;;;;;;;;;;;;6266746;28;20071;-60
2022/04/26 07:51:47;;;;;;;42.33;18.55;;;;;;;;;;6266864;28;20291;-59
2022/04/26 07:54:48;;;;;;;44.28;18.98;;;;;;;;;;6263812;28;20053;-60
2022/04/26 07:57:48;;;;;;;39.92;18.88;;;;;;;;;;6260815;28;20175;-59
2022/04/26 08:00:49;;;;;;;38.72;18.17;;;;;;;;;;6264243;28;20052;-60
2022/04/26 08:03:49;;;;;;;42.80;20.05;;;;;;;;;;6263626;28;20128;-61
2022/04/26 08:06:50;;;;;;;37.90;18.45;;;;;;;;;;6263858;28;20443;-60
2022/04/26 08:09:50;;;;;;;38.75;18.73;;;;;;;;;;6267612;28;20142;-60
2022/04/26 08:12:51;;;;;;;43.13;19.73;;;;;;;;;;6264946;28;20057;-60
2022/04/26 08:15:52;;;;;;;40.38;19.45;;;;;;;;;;6262492;28;20131;-60
2022/04/26 08:18:52;;;;;;;40.35;19.40;;;;;;;;;;6261072;28;20041;-59
2022/04/26 08:21:53;;;;;;;43.42;19.20;;;;;;;;;;6262606;28;20049;-59
2022/04/26 08:28:13;;;;;;;41.22;18.50;;;;;;;;;;6259763;28;20049;-61
2022/04/26 08:31:13;;;;;;;43.13;19.88;;;;;;;;;;6261659;28;20082;-60
2022/04/26 08:34:14;;;;;;;43.60;20.00;;;;;;;;;;6260012;28;20140;-61
2022/04/26 08:37:15;;;;;;;38.22;17.88;;;;;;;;;;6261744;28;20586;-61
2022/04/26 08:40:16;;;;;;;40.78;18.92;;;;;;;;;;6260892;28;20548;-61
2022/04/26 08:43:17;;;;;;;39.57;18.57;;;;;;;;;;6262951;28;20056;-61
2022/04/26 08:46:17;;;;;;;43.95;20.52;;;;;;;;;;6261377;28;20376;-60
2022/04/26 08:52:48;;;;;;;39.50;17.23;;;;;;;;;;6261899;28;20041;-61
2022/04/26 08:55:54;;;;;;;38.45;18.13;;;;;;;;;;6261932;28;20053;-60
2022/04/26 08:58:54;;;;;;;34.28;17.63;;;;;;;;;;6261479;28;20743;-60
2022/04/26 09:02:18;;;;;;;39.42;17.98;;;;;;;;;;6262734;28;20049;-60
2022/04/26 09:05:18;;;;;;;35.78;17.02;;;;;;;;;;6261786;28;20046;-61
2022/04/26 09:08:20;;;;;;;39.05;18.38;;;;;;;;;;6264438;28;20052;-60
2022/04/26 09:11:27;;;;;;;42.70;19.80;;;;;;;;;;6264625;28;20052;-60
2022/04/26 09:14:33;;;;;;;37.53;18.25;;;;;;;;;;6266404;28;20521;-60
2022/04/26 09:17:34;;;;;;;34.47;18.08;;;;;;;;;;6266582;28;20048;-61
2022/04/26 09:20:35;;;;;;;36.60;18.30;;;;;;;;;;6262661;28;20136;-61
2022/04/26 09:23:38;;;;;;;36.75;18.50;;;;;;;;;;6266939;28;20129;-60
2022/04/26 09:26:40;;;;;;;32.55;16.65;;;;;;;;;;6265107;28;20049;-60
2022/04/26 09:29:47;;;;;;;36.47;17.53;;;;;;;;;;6267524;28;20473;-60
2022/04/26 09:32:49;;;;;;;31.38;16.25;;;;;;;;;;6266610;28;20052;-62
2022/04/26 09:35:59;;;;;;;33.67;17.88;;;;;;;;;;6271034;28;20057;-61
2022/04/26 09:39:00;;;;;;;33.30;15.32;;;;;;;;;;6270117;28;20053;-61
2022/04/26 09:42:01;;;;;;;29.75;14.70;;;;;;;;;;6269554;28;20048;-62
2022/04/26 09:45:10;;;;;;;30.98;15.02;;;;;;;;;;6270116;28;20056;-61
2022/04/26 09:48:12;;;;;;;27.90;14.30;;;;;;;;;;6270794;28;20053;-61
2022/04/26 09:51:13;;;;;;;28.13;13.15;;;;;;;;;;6270356;28;20049;-61
2022/04/26 09:54:14;;;;;;;29.35;15.27;;;;;;;;;;6269492;28;20124;-61
2022/04/26 09:57:20;;;;;;;29.80;14.95;;;;;;;;;;6270727;28;20432;-61
2022/04/26 10:00:22;;;;;;;25.60;13.98;;;;;;;;;;6271348;28;20136;-61
2022/04/26 10:03:35;;;;;;;25.50;13.60;;;;;;;;;;6266322;28;20052;-61
2022/04/26 10:06:38;;;;;;;27.35;13.95;;;;;;;;;;6244866;28;20340;-61
2022/04/26 10:09:40;;;;;;;29.10;14.73;;;;;;;;;;6263266;28;20053;-60
2022/04/26 10:12:42;;;;;;;32.47;15.85;;;;;;;;;;6269385;28;20057;-60
2022/04/26 10:15:43;;;;;;;27.17;14.32;;;;;;;;;;6269321;28;20094;-59
2022/04/26 10:18:45;;;;;;;28.95;14.20;;;;;;;;;;6265501;28;20049;-60
2022/04/26 10:21:47;;;;;;;25.35;13.25;;;;;;;;;;6264273;28;20077;-59
2022/04/26 10:25:09;;;;;;;26.02;12.75;;;;;;;;;;6260904;28;20048;-57
2022/04/26 10:28:16;;;;;;;26.90;12.82;;;;;;;;;;6256033;28;20075;-60
2022/04/26 10:31:22;;;;;;;26.33;12.98;;;;;;;;;;6261892;28;20476;-60
2022/04/26 10:34:31;;;;;;;27.98;13.48;;;;;;;;;;6261640;28;20075;-60
2022/04/26 10:37:32;;;;;;;27.98;13.70;;;;;;;;;;6261856;28;20044;-60
2022/04/26 10:41:04;;;;;;;26.90;14.02;;;;;;;;;;6264157;28;20121;-59
2022/04/26 10:44:15;;;;;;;27.63;14.00;;;;;;;;;;6262215;28;20063;-59
2022/04/26 10:47:18;;;;;;;32.13;15.27;;;;;;;;;;6259927;28;20518;-60
2022/04/26 10:50:30;;;;;;;35.63;16.35;;;;;;;;;;6259549;28;20643;-60
2022/04/26 10:53:45;;;;;;;30.17;14.43;;;;;;;;;;6263084;28;20053;-60
2022/04/26 10:56:45;;;;;;;28.27;14.65;;;;;;;;;;6264726;28;20053;-61
2022/04/26 11:00:03;;;;;;;30.63;15.65;;;;;;;;;;6266556;28;20063;-61
2022/04/26 11:03:06;;;;;;;30.05;15.27;;;;;;;;;;6266841;28;20045;-60
2022/04/26 11:06:07;;;;;;;32.28;14.95;;;;;;;;;;6268682;28;20072;-61
2022/04/26 11:09:12;;;;;;;32.17;14.63;;;;;;;;;;6267789;28;20055;-60
2022/04/26 11:12:15;;;;;;;31.55;15.70;;;;;;;;;;6264109;28;20047;-61
2022/04/26 11:15:22;;;;;;;31.23;15.60;;;;;;;;;;6263089;28;20415;-60
2022/04/26 11:18:22;;;;;;;30.92;14.52;;;;;;;;;;6263579;28;20492;-60
2022/04/26 11:21:24;;;;;;;30.52;14.80;;;;;;;;;;6264332;28;20036;-62
2022/04/26 11:31:03;;;;;;;30.60;15.27;;;;;;;;;;6267673;28;20045;-60
2022/04/26 11:34:03;;;;;;;33.72;15.23;;;;;;;;;;6265723;28;20131;-60
2022/04/26 11:37:04;;;;;;;30.92;15.43;;;;;;;;;;6266519;28;20045;-60
2022/04/26 11:40:05;;;;;;;29.58;15.48;;;;;;;;;;6266034;28;20128;-59
2022/04/26 11:43:14;;;;;;;34.60;16.75;;;;;;;;;;6266037;28;20068;-60
2022/04/26 11:46:14;;;;;;;31.08;15.07;;;;;;;;;;6266666;28;20054;-60
2022/04/26 11:49:15;;;;;;;30.90;16.73;;;;;;;;;;6265785;28;20041;-67
2022/04/26 11:52:22;;;;;;;32.20;16.67;;;;;;;;;;6266579;28;20072;-60
2022/04/26 11:55:24;;;;;;;35.95;16.85;;;;;;;;;;6265585;28;20049;-60
2022/04/26 11:58:25;;;;;;;27.05;14.88;;;;;;;;;;6266012;28;20044;-61
2022/04/26 12:01:26;;;;;;;25.75;14.07;;;;;;;;;;6266518;28;20040;-60
2022/04/26 12:04:28;;;;;;;26.13;14.00;;;;;;;;;;6264797;28;20052;-60
2022/04/26 12:07:30;;;;;;;23.80;12.87;;;;;;;;;;6266378;28;20055;-60
2022/04/26 12:10:32;;;;;;;29.15;14.23;;;;;;;;;;6266901;28;20442;-60
2022/04/26 12:13:33;;;;;;;;;;;;;;;;;;6266222;28;20044;-60
2022/04/26 12:16:41;;;;;;;24.50;11.80;;;;;;;;;;6266203;28;20023;-61
2022/04/26 12:19:42;;;;;;;28.35;13.45;;;;;;;;;;6264469;28;20499;-60
2022/04/26 12:22:42;;;;;;;25.33;13.70;;;;;;;;;;6266561;28;20072;-60
2022/04/26 12:25:54;;;;;;;26.02;15.00;;;;;;;;;;6264826;28;20411;-60
2022/04/26 12:28:55;;;;;;;27.90;13.23;;;;;;;;;;6265208;28;20424;-60
2022/04/26 12:31:57;;;;;;;27.23;14.27;;;;;;;;;;6264446;28;20052;-61
2022/04/26 12:35:00;;;;;;;31.10;16.75;;;;;;;;;;6261644;28;20427;-61
2022/04/26 12:38:06;;;;;;;24.63;12.80;;;;;;;;;;6264616;28;20049;-60
2022/04/26 12:41:07;;;;;;;27.83;14.13;;;;;;;;;;6266150;28;20067;-60
2022/04/26 12:44:10;;;;;;;25.95;13.30;;;;;;;;;;6264840;28;20032;-60
2022/04/26 12:50:35;;;;;;;26.42;12.55;;;;;;;;;;6258342;28;20052;-60
2022/04/26 12:53:35;;;;;;;22.67;12.23;;;;;;;;;;6259965;28;20095;-60
2022/04/26 12:56:36;;;;;;;22.75;12.40;;;;;;;;;;6258470;28;20049;-61
2022/04/26 12:59:38;;;;;;;23.80;12.50;;;;;;;;;;6260070;28;20113;-60
2022/04/26 13:02:38;;;;;;;24.40;13.18;;;;;;;;;;6260645;28;20045;-60
2022/04/26 13:05:44;;;;;;;21.67;12.68;;;;;;;;;;6257305;28;20104;-60
2022/04/26 13:08:47;;;;;;;23.20;13.55;;;;;;;;;;6260290;28;20504;-60
2022/04/26 13:11:49;;;;;;;25.83;13.02;;;;;;;;;;6258646;28;20049;-61
2022/04/26 13:14:50;;;;;;;23.70;13.55;;;;;;;;;;6260716;28;20056;-61
2022/04/26 13:17:51;;;;;;;21.40;12.32;;;;;;;;;;6258327;28;20086;-61
2022/04/26 13:20:54;;;;;;;21.35;11.30;;;;;;;;;;6261108;28;22153;-60
2022/04/26 13:23:57;;;;;;;19.30;9.88;;;;;;;;;;6260011;28;20053;-60
2022/04/26 13:26:58;;;;;;;24.15;11.88;;;;;;;;;;6258248;28;20052;-60
2022/04/26 13:29:59;;;;;;;36.67;17.38;;;;;;;;;;6250942;28;20499;-60
2022/04/26 13:33:00;;;;;;;31.67;16.25;;;;;;;;;;6252465;28;20065;-60
2022/04/26 13:36:01;;;;;;;31.00;15.83;;;;;;;;;;6247422;28;20070;-60
2022/04/26 13:39:02;;;;;;;33.28;16.58;;;;;;;;;;6250081;28;20049;-60
2022/04/26 13:42:03;;;;;;;32.92;16.60;;;;;;;;;;6248503;28;20045;-60
2022/04/26 13:45:04;;;;;;;32.50;16.02;;;;;;;;;;6250225;28;20049;-60
2022/04/26 13:48:11;;;;;;;34.25;17.17;;;;;;;;;;6248167;28;20372;-59
2022/04/26 13:51:11;;;;;;;34.08;17.30;;;;;;;;;;6250522;28;20048;-60
2022/04/26 13:54:12;;;;;;;39.00;19.58;;;;;;;;;;6251776;28;20179;-60
2022/04/26 13:57:14;;;;;;;34.03;16.70;;;;;;;;;;6255768;28;20084;-60
2022/04/26 14:00:15;;;;;;;33.80;15.55;;;;;;;;;;6257305;28;20075;-60
2022/04/26 14:03:16;;;;;;;33.95;16.23;;;;;;;;;;6260804;28;20091;-60
2022/04/26 14:06:21;;;;;;;35.22;17.15;;;;;;;;;;6259908;28;20851;-60
2022/04/26 14:09:22;;;;;;;29.85;15.55;;;;;;;;;;6253534;28;20091;-60
2022/04/26 14:12:23;;;;;;;34.88;17.50;;;;;;;;;;6254476;28;20045;-60
2022/04/26 14:22:02;;;;;;;25.55;13.32;;;;;;;;;;6252331;28;20068;-57
2022/04/26 14:25:05;;;;;;;29.83;14.52;;;;;;;;;;6252798;28;20075;-60
2022/04/26 14:28:06;;;;;;;33.45;16.85;;;;;;;;;;6251430;28;20052;-59
2022/04/26 14:31:06;;;;;;;33.90;16.23;;;;;;;;;;6250840;28;20821;-60
2022/04/26 14:34:08;;;;;;;30.55;15.27;;;;;;;;;;6253527;28;20064;-60
2022/04/26 14:37:10;;;;;;;36.70;19.13;;;;;;;;;;6252133;28;20056;-60
2022/04/26 14:40:12;;;;;;;31.60;15.38;;;;;;;;;;6250646;28;20175;-60
2022/04/26 14:43:14;;;;;;;32.10;15.13;;;;;;;;;;6255576;28;20140;-59
2022/04/26 14:46:15;;;;;;;47.20;20.02;;;;;;;;;;6253142;28;20144;-60
2022/04/26 14:49:15;;;;;;;45.92;21.00;;;;;;;;;;6252702;28;20057;-60
2022/04/26 14:52:21;;;;;;;38.30;18.23;;;;;;;;;;6255340;28;20531;-60
2022/04/26 14:55:21;;;;;;;39.47;19.05;;;;;;;;;;6254459;28;20545;-60
2022/04/26 14:58:22;;;;;;;44.85;19.77;;;;;;;;;;6256320;28;20139;-61
2022/04/26 15:01:23;;;;;;;45.88;21.10;;;;;;;;;;6254756;28;20060;-60
2022/04/26 15:04:25;;;;;;;43.08;19.05;;;;;;;;;;6257703;28;20045;-61
2022/04/26 15:07:26;;;;;;;44.90;21.98;;;;;;;;;;6257115;28;20072;-61
2022/04/26 15:10:27;;;;;;;52.90;24.53;;;;;;;;;;6255623;28;20091;-60
2022/04/26 15:16:49;;;;;;;44.05;21.02;;;;;;;;;;6254759;28;20867;-61
2022/04/26 15:19:50;;;;;;;;;;;;;;;;;;6252178;28;20436;-60
2022/04/26 15:22:50;;;;;;;42.65;18.92;;;;;;;;;;6251479;28;19929;-60
2022/04/26 15:25:53;;;;;;;40.08;19.20;;;;;;;;;;6254728;28;20122;-60
2022/04/26 15:28:53;;;;;;;;;;;;;;;;;;6251882;28;20076;-58
2022/04/26 15:31:54;;;;;;;36.10;16.98;;;;;;;;;;6250315;28;19952;-61
2022/04/26 15:34:55;;;;;;;38.58;18.60;;;;;;;;;;6250713;28;20080;-61
2022/04/26 15:37:55;;;;;;;38.47;18.10;;;;;;;;;;6250276;28;20064;-61
2022/04/26 15:41:01;;;;;;;37.22;18.05;;;;;;;;;;6247243;28;20056;-58
2022/04/26 15:44:05;;;;;;;44.72;21.42;;;;;;;;;;6252900;28;20060;-61
2022/04/26 15:47:06;;;;;;;44.67;21.40;;;;;;;;;;6252411;28;20045;-61
2022/04/26 15:50:07;;;;;;;39.67;19.92;;;;;;;;;;6249969;28;20164;-58
2022/04/26 15:53:08;;;;;;;42.35;19.50;;;;;;;;;;6252107;28;20045;-58
2022/04/26 15:56:09;;;;;;;43.97;20.48;;;;;;;;;;6254160;28;20045;-59
2022/04/26 15:59:10;;;;;;;39.88;19.20;;;;;;;;;;6254902;28;20144;-58
2022/04/26 16:02:11;;;;;;;40.77;19.43;;;;;;;;;;6248679;28;20045;-59
2022/04/26 16:05:13;;;;;;;41.40;20.77;;;;;;;;;;6252858;28;20099;-58
2022/04/26 16:08:14;;;;;;;40.97;19.75;;;;;;;;;;6253518;28;20056;-58
2022/04/26 16:21:12;;;;;;;32.55;17.55;;;;;;;;;;6248891;28;20071;-60
2022/04/26 16:24:13;;;;;;;33.33;16.60;;;;;;;;;;6250918;28;20107;-60
2022/04/26 16:27:13;;;;;;;31.05;17.40;;;;;;;;;;6250282;28;20048;-59
2022/04/26 16:30:14;;;;;;;34.53;16.98;;;;;;;;;;6250662;28;20048;-60
2022/04/26 16:33:15;;;;;;;35.50;17.23;;;;;;;;;;6246434;28;20083;-60
2022/04/26 16:36:17;;;;;;;32.00;16.63;;;;;;;;;;6250213;28;20863;-60
2022/04/26 16:39:18;;;;;;;32.10;16.13;;;;;;;;;;6253502;28;20385;-60
2022/04/26 16:42:20;;;;;;;35.88;17.75;;;;;;;;;;6249050;28;20045;-60
2022/04/26 16:45:22;;;;;;;35.15;17.20;;;;;;;;;;6249207;28;20045;-60
2022/04/26 16:48:23;;;;;;;33.72;15.98;;;;;;;;;;6251789;28;20140;-59
2022/04/26 16:51:25;;;;;;;37.45;17.02;;;;;;;;;;6249526;28;20064;-60
2022/04/26 16:54:25;;;;;;;34.75;17.42;;;;;;;;;;6248608;28;20556;-60
2022/04/26 16:57:28;;;;;;;34.17;16.25;;;;;;;;;;6250040;28;20569;-57
2022/04/26 17:00:29;;;;;;;36.50;16.60;;;;;;;;;;6253951;28;20135;-63
2022/04/26 17:03:29;;;;;;;38.22;19.67;;;;;;;;;;6252827;28;20037;-62
2022/04/26 17:06:32;;;;;;;37.40;19.20;;;;;;;;;;6255965;28;20500;-59
2022/04/26 17:09:34;;;;;;;;;;;;;;;;;;6255963;28;20152;-68
2022/04/26 17:12:35;;;;;;;48.72;18.15;;;;;;;;;;6252169;28;20400;-70
2022/04/26 17:15:36;;;;;;;38.92;18.00;;;;;;;;;;6254017;28;20051;-64
2022/04/26 17:18:37;;;;;;;43.40;20.77;;;;;;;;;;6256812;28;20131;-64
2022/04/26 17:21:38;;;;;;;41.10;21.02;;;;;;;;;;6252360;28;20057;-63
2022/04/26 17:27:59;;;;;;;36.28;18.63;;;;;;;;;;6256063;28;20041;-60
2022/04/26 17:30:59;;;;;;;37.83;19.58;;;;;;;;;;6257665;28;20049;-60
2022/04/26 17:34:00;;;;;;;41.75;19.10;;;;;;;;;;6260660;28;20132;-59
2022/04/26 17:37:01;;;;;;;43.22;20.42;;;;;;;;;;6259277;28;20045;-58
2022/04/26 17:40:02;;;;;;;40.63;20.23;;;;;;;;;;6258555;28;20133;-60
2022/04/26 17:43:03;;;;;;;40.63;20.07;;;;;;;;;;6265105;28;20045;-59
2022/04/26 17:46:11;;;;;;;40.80;19.17;;;;;;;;;;6257359;28;20207;-63
2022/04/26 17:49:11;;;;;;;41.60;18.83;;;;;;;;;;6262374;28;20130;-59
2022/04/26 17:52:12;;;;;;;37.22;18.33;;;;;;;;;;6260099;28;21271;-59
2022/04/26 17:58:39;;;;;;;33.70;15.90;;;;;;;;;;6237499;28;20045;-60
2022/04/26 18:01:40;;;;;;;34.53;17.17;;;;;;;;;;6259546;28;20052;-60
2022/04/26 18:04:42;;;;;;;31.83;17.15;;;;;;;;;;6259892;28;20057;-59
2022/04/26 18:07:42;;;;;;;37.70;18.33;;;;;;;;;;6258879;28;20049;-58
2022/04/26 18:10:43;;;;;;;35.63;16.95;;;;;;;;;;6258019;28;20576;-59
2022/04/26 18:13:45;;;;;;;36.83;17.92;;;;;;;;;;6260447;28;20172;-59
2022/04/26 18:16:46;;;;;;;45.03;20.33;;;;;;;;;;6258470;28;20045;-59
2022/04/26 18:19:47;;;;;;;69.13;30.90;;;;;;;;;;6259805;28;20049;-59
2022/04/26 18:22:48;;;;;;;103.18;41.10;;;;;;;;;;6255697;28;20538;-59
2022/04/26 18:29:09;;;;;;;72.13;30.85;;;;;;;;;;6253849;28;20080;-59
2022/04/26 18:32:10;;;;;;;69.07;32.47;;;;;;;;;;6255924;28;20620;-59
2022/04/26 18:35:11;;;;;;;66.18;28.33;;;;;;;;;;6257341;28;20053;-60
2022/04/26 18:38:13;;;;;;;72.07;29.00;;;;;;;;;;6255479;28;20567;-59
2022/04/26 18:41:15;;;;;;;73.80;29.98;;;;;;;;;;6254456;28;20051;-59
2022/04/26 18:44:17;;;;;;;;;;;;;;;;;;6257336;28;20389;-59
2022/04/26 18:47:18;;;;;;;70.80;31.03;;;;;;;;;;6256114;28;20463;-60
2022/04/26 18:50:18;;;;;;;60.45;28.13;;;;;;;;;;6254708;28;20045;-59
2022/04/26 18:53:19;;;;;;;55.88;25.98;;;;;;;;;;6256494;28;20476;-60
2022/04/26 18:56:20;;;;;;;70.30;31.02;;;;;;;;;;6252144;28;20053;-59
2022/04/26 18:59:21;;;;;;;55.10;27.45;;;;;;;;;;6253873;28;20059;-59
2022/04/26 19:02:22;;;;;;;48.78;24.42;;;;;;;;;;6252006;28;20083;-59
2022/04/26 19:05:23;;;;;;;55.05;26.50;;;;;;;;;;6254061;28;20041;-61
2022/04/26 19:08:25;;;;;;;65.22;33.28;;;;;;;;;;6252809;28;20048;-59
2022/04/26 19:14:46;;;;;;;66.32;33.33;;;;;;;;;;6255944;28;20138;-57
2022/04/26 19:17:46;;;;;;;77.20;35.67;;;;;;;;;;6255141;28;20521;-59
2022/04/26 19:20:47;;;;;;;83.35;39.72;;;;;;;;;;6252753;28;20645;-59
2022/04/26 19:23:49;;;;;;;95.80;42.33;;;;;;;;;;6255169;28;20103;-60
2022/04/26 19:26:50;;;;;;;80.18;37.22;;;;;;;;;;6254854;28;20273;-60
2022/04/26 19:29:51;;;;;;;77.15;36.22;;;;;;;;;;6251214;28;20033;-60
2022/04/26 19:32:52;;;;;;;76.72;34.67;;;;;;;;;;6255020;28;20053;-58
2022/04/26 19:35:52;;;;;;;74.43;35.13;;;;;;;;;;6254579;28;20052;-58
2022/04/26 19:38:53;;;;;;;71.75;35.00;;;;;;;;;;6252721;28;20118;-60
2022/04/26 19:41:54;;;;;;;63.50;32.58;;;;;;;;;;6253040;28;20488;-60
2022/04/26 19:44:57;;;;;;;78.07;35.15;;;;;;;;;;6254305;28;20476;-57
2022/04/26 19:47:57;;;;;;;77.85;33.00;;;;;;;;;;6256442;28;20045;-59
2022/04/26 19:54:17;;;;;;;67.15;32.28;;;;;;;;;;6255549;28;20053;-59
2022/04/26 19:57:18;;;;;;;91.78;40.88;;;;;;;;;;6254313;28;20075;-60
2022/04/26 20:00:20;;;;;;;110.00;49.40;;;;;;;;;;6249125;28;20041;-58
2022/04/26 20:03:21;;;;;;;100.93;45.92;;;;;;;;;;6253537;28;20056;-56
2022/04/26 20:06:22;;;;;;;81.03;38.50;;;;;;;;;;6252780;28;20128;-59
2022/04/26 20:09:23;;;;;;;93.57;40.10;;;;;;;;;;6249140;28;20385;-58
2022/04/26 20:12:24;;;;;;;80.25;37.92;;;;;;;;;;6251152;28;20131;-60
2022/04/26 20:15:25;;;;;;;95.03;41.35;;;;;;;;;;6254881;28;20156;-60
2022/04/26 20:18:25;;;;;;;115.38;49.67;;;;;;;;;;6265308;28;20045;-59
2022/04/26 20:21:26;;;;;;;106.18;46.10;;;;;;;;;;6265609;28;20439;-59
2022/04/26 20:24:27;;;;;;;112.32;49.08;;;;;;;;;;6262752;28;20091;-60
2022/04/26 20:30:47;;;;;;;114.53;53.42;;;;;;;;;;6263902;28;20041;-58
2022/04/26 20:33:47;;;;;;;112.93;52.58;;;;;;;;;;6265991;28;20060;-59
2022/04/26 20:36:50;;;;;;;107.57;48.15;;;;;;;;;;6264399;28;20092;-58
2022/04/26 20:39:51;;;;;;;96.28;42.95;;;;;;;;;;6262174;28;20095;-58
2022/04/26 20:42:55;;;;;;;96.27;43.00;;;;;;;;;;6265177;28;20067;-59
2022/04/26 20:45:57;;;;;;;104.32;43.90;;;;;;;;;;6266443;28;20360;-60
2022/04/26 20:48:57;;;;;;;96.00;42.30;;;;;;;;;;6265415;28;20094;-59
2022/04/26 20:51:58;;;;;;;100.38;45.70;;;;;;;;;;6264545;28;20072;-57
2022/04/26 20:54:58;;;;;;;99.50;43.00;;;;;;;;;;6264944;28;20128;-56
2022/04/26 20:57:59;;;;;;;90.90;42.28;;;;;;;;;;6262541;28;20418;-59
2022/04/26 21:01:00;;;;;;;96.13;45.88;;;;;;;;;;6263308;28;20087;-58
2022/04/26 21:04:02;;;;;;;90.88;42.92;;;;;;;;;;6264963;28;20052;-58
2022/04/26 21:07:03;;;;;;;91.72;41.85;;;;;;;;;;6269397;28;20485;-59
2022/04/26 21:10:04;;;;;;;74.40;34.90;;;;;;;;;;6266652;28;20044;-57
2022/04/26 21:13:23;;;;;;;77.28;34.00;;;;;;;;;;6266867;28;20468;-60
2022/04/26 21:16:24;;;;;;;71.82;31.60;;;;;;;;;;6269977;28;20449;-59
2022/04/26 21:19:24;;;;;;;70.95;32.00;;;;;;;;;;6271096;28;20051;-58
2022/04/26 21:22:25;;;;;;;72.68;31.90;;;;;;;;;;6268701;28;20040;-60
2022/04/26 21:25:26;;;;;;;74.13;33.30;;;;;;;;;;6265526;28;20099;-59
2022/04/26 21:28:27;;;;;;;83.45;37.22;;;;;;;;;;6266892;28;20491;-58
2022/04/26 21:31:28;;;;;;;83.10;38.03;;;;;;;;;;6263424;28;20053;-58
2022/04/26 21:34:29;;;;;;;83.30;37.58;;;;;;;;;;6266844;28;20463;-59
2022/04/26 21:37:30;;;;;;;83.22;37.85;;;;;;;;;;6266846;28;20052;-60
2022/04/26 21:40:31;;;;;;;85.97;37.45;;;;;;;;;;6266353;28;20385;-60
2022/04/26 21:43:33;;;;;;;83.45;39.20;;;;;;;;;;6266845;28;20045;-58
2022/04/26 21:46:34;;;;;;;79.43;36.97;;;;;;;;;;6267868;28;20061;-58
2022/04/26 21:52:53;;;;;;;102.53;44.38;;;;;;;;;;6266818;28;20094;-58
2022/04/26 21:55:55;;;;;;;103.70;46.88;;;;;;;;;;6267784;28;20488;-58
2022/04/26 21:58:56;;;;;;;94.65;42.90;;;;;;;;;;6267973;28;20511;-57
2022/04/26 22:01:57;;;;;;;93.22;43.30;;;;;;;;;;6267279;28;20045;-57
2022/04/26 22:04:58;;;;;;;92.30;42.40;;;;;;;;;;6268331;28;20068;-59
2022/04/26 22:07:58;;;;;;;96.47;44.92;;;;;;;;;;6268214;28;20557;-58
2022/04/26 22:10:59;;;;;;;98.53;44.63;;;;;;;;;;6266464;28;20559;-59
2022/04/26 22:14:00;;;;;;;99.97;42.90;;;;;;;;;;6265817;28;20049;-58
2022/04/26 22:17:01;;;;;;;97.78;44.53;;;;;;;;;;6263749;28;20140;-58
2022/04/26 22:20:20;;;;;;;98.65;42.55;;;;;;;;;;6265572;28;20049;-58
2022/04/26 22:23:21;;;;;;;107.85;46.30;;;;;;;;;;6264919;28;20068;-60